sensor_id;sensor_type;location;lat;lon;timestamp;temperature;humidity
41080;DHT22;26826;50.718;7.114;2022-08-06T00:08:09;17.00;99.90
41080;DHT22;26826;50.718;7.114;2022-08-06T00:18:10;16.90;99.90
41080;DHT22;26826;50.718;7.114;2022-08-06T00:28:10;16.80;99.90
41080;DHT22;26826;50.718;7.114;2022-08-06T00:38:11;16.50;99.90
41080;DHT22;26826;50.718;7.114;2022-08-06T00:48:12;16.40;99.90
41080;DHT22;26826;50.718;7.114;2022-08-06T00:58:14;16.20;99.90
41080;DHT22;26826;50.718;7.114;2022-08-06T01:08:14;16.10;99.90
41080;DHT22;26826;50.718;7.114;2022-08-06T01:18:21;15.90;99.90
41080;DHT22;26826;50.718;7.114;2022-08-06T01:28:28;15.60;99.90
41080;DHT22;26826;50.718;7.114;2022-08-06T01:38:35;15.40;99.90
41080;DHT22;26826;50.718;7.114;2022-08-06T01:48:37;15.30;99.90
41080;DHT22;26826;50.718;7.114;2022-08-06T01:58:41;15.20;99.90
41080;DHT22;26826;50.718;7.114;2022-08-06T02:08:44;14.90;99.90
41080;DHT22;26826;50.718;7.114;2022-08-06T02:18:49;14.80;99.90
41080;DHT22;26826;50.718;7.114;2022-08-06T02:28:52;14.60;99.90
41080;DHT22;26826;50.718;7.114;2022-08-06T02:38:58;14.70;99.90
41080;DHT22;26826;50.718;7.114;2022-08-06T02:49:04;14.40;99.90
41080;DHT22;26826;50.718;7.114;2022-08-06T02:59:10;14.60;99.90
41080;DHT22;26826;50.718;7.114;2022-08-06T03:09:13;14.40;99.90
41080;DHT22;26826;50.718;7.114;2022-08-06T03:19:15;14.50;99.90
41080;DHT22;26826;50.718;7.114;2022-08-06T03:29:18;14.40;99.90
41080;DHT22;26826;50.718;7.114;2022-08-06T03:39:19;14.30;99.90
41080;DHT22;26826;50.718;7.114;2022-08-06T03:49:29;14.00;99.90
41080;DHT22;26826;50.718;7.114;2022-08-06T03:59:31;14.00;99.90
41080;DHT22;26826;50.718;7.114;2022-08-06T04:09:33;13.80;99.90
41080;DHT22;26826;50.718;7.114;2022-08-06T04:19:34;13.70;99.90
41080;DHT22;26826;50.718;7.114;2022-08-06T04:29:39;13.60;99.90
41080;DHT22;26826;50.718;7.114;2022-08-06T04:39:40;13.40;99.90
41080;DHT22;26826;50.718;7.114;2022-08-06T04:49:41;13.40;99.90
41080;DHT22;26826;50.718;7.114;2022-08-06T04:59:42;13.50;99.90
41080;DHT22;26826;50.718;7.114;2022-08-06T05:09:43;13.60;99.90
41080;DHT22;26826;50.718;7.114;2022-08-06T05:19:47;13.80;99.90
41080;DHT22;26826;50.718;7.114;2022-08-06T05:29:50;13.90;99.90
41080;DHT22;26826;50.718;7.114;2022-08-06T05:39:51;14.00;99.90
41080;DHT22;26826;50.718;7.114;2022-08-06T05:50:11;14.00;99.90
41080;DHT22;26826;50.718;7.114;2022-08-06T06:00:18;14.00;99.90
41080;DHT22;26826;50.718;7.114;2022-08-06T06:10:21;14.30;99.90
41080;DHT22;26826;50.718;7.114;2022-08-06T06:30:55;15.70;99.90
41080;DHT22;26826;50.718;7.114;2022-08-06T06:41:14;16.30;99.90
41080;DHT22;26826;50.718;7.114;2022-08-06T06:51:27;16.90;99.90
41080;DHT22;26826;50.718;7.114;2022-08-06T07:01:30;17.90;99.90
41080;DHT22;26826;50.718;7.114;2022-08-06T07:11:32;18.40;99.90
41080;DHT22;26826;50.718;7.114;2022-08-06T07:21:34;18.90;99.90
41080;DHT22;26826;50.718;7.114;2022-08-06T07:31:36;19.50;99.90
41080;DHT22;26826;50.718;7.114;2022-08-06T07:41:37;20.30;99.90
41080;DHT22;26826;50.718;7.114;2022-08-06T07:51:43;20.50;99.90
41080;DHT22;26826;50.718;7.114;2022-08-06T08:01:44;21.10;99.90
41080;DHT22;26826;50.718;7.114;2022-08-06T08:11:46;21.30;99.90
41080;DHT22;26826;50.718;7.114;2022-08-06T08:21:52;21.90;99.30
41080;DHT22;26826;50.718;7.114;2022-08-06T08:31:55;22.40;97.20
41080;DHT22;26826;50.718;7.114;2022-08-06T08:42:04;23.00;96.00
41080;DHT22;26826;50.718;7.114;2022-08-06T08:52:13;21.90;96.00
41080;DHT22;26826;50.718;7.114;2022-08-06T09:02:17;21.50;95.90
41080;DHT22;26826;50.718;7.114;2022-08-06T09:12:19;21.60;96.40
41080;DHT22;26826;50.718;7.114;2022-08-06T09:22:21;22.10;95.40
41080;DHT22;26826;50.718;7.114;2022-08-06T09:32:41;22.60;93.10
41080;DHT22;26826;50.718;7.114;2022-08-06T09:42:45;24.30;86.80
41080;DHT22;26826;50.718;7.114;2022-08-06T09:53:00;26.10;86.60
41080;DHT22;26826;50.718;7.114;2022-08-06T10:03:09;25.00;84.70
41080;DHT22;26826;50.718;7.114;2022-08-06T10:13:23;25.50;84.30
41080;DHT22;26826;50.718;7.114;2022-08-06T10:23:30;26.50;83.30
41080;DHT22;26826;50.718;7.114;2022-08-06T10:33:39;26.90;80.10
41080;DHT22;26826;50.718;7.114;2022-08-06T10:43:41;28.00;77.50
41080;DHT22;26826;50.718;7.114;2022-08-06T10:53:45;28.60;73.30
41080;DHT22;26826;50.718;7.114;2022-08-06T11:14:10;27.90;74.20
41080;DHT22;26826;50.718;7.114;2022-08-06T11:34:52;27.40;69.20
41080;DHT22;26826;50.718;7.114;2022-08-06T11:45:02;28.90;70.20
41080;DHT22;26826;50.718;7.114;2022-08-06T11:55:05;28.70;68.70
41080;DHT22;26826;50.718;7.114;2022-08-06T12:25:21;29.70;64.40
41080;DHT22;26826;50.718;7.114;2022-08-06T12:35:29;27.60;66.80
41080;DHT22;26826;50.718;7.114;2022-08-06T12:45:31;29.40;64.60
41080;DHT22;26826;50.718;7.114;2022-08-06T13:56:31;30.70;60.30
41080;DHT22;26826;50.718;7.114;2022-08-06T14:06:31;31.10;59.30
41080;DHT22;26826;50.718;7.114;2022-08-06T14:16:32;31.00;59.00
41080;DHT22;26826;50.718;7.114;2022-08-06T14:26:32;30.40;59.50
41080;DHT22;26826;50.718;7.114;2022-08-06T14:36:33;30.70;58.30
41080;DHT22;26826;50.718;7.114;2022-08-06T14:46:33;30.00;58.50
41080;DHT22;26826;50.718;7.114;2022-08-06T14:56:35;28.70;59.20
41080;DHT22;26826;50.718;7.114;2022-08-06T15:06:35;29.40;59.00
41080;DHT22;26826;50.718;7.114;2022-08-06T15:16:36;28.70;59.40
41080;DHT22;26826;50.718;7.114;2022-08-06T15:26:37;28.60;59.20
41080;DHT22;26826;50.718;7.114;2022-08-06T15:36:37;28.90;59.20
41080;DHT22;26826;50.718;7.114;2022-08-06T15:46:38;28.60;59.90
41080;DHT22;26826;50.718;7.114;2022-08-06T15:56:38;28.10;60.30
41080;DHT22;26826;50.718;7.114;2022-08-06T16:06:39;27.50;60.70
41080;DHT22;26826;50.718;7.114;2022-08-06T16:16:40;27.40;60.30
41080;DHT22;26826;50.718;7.114;2022-08-06T16:26:40;27.40;60.50
41080;DHT22;26826;50.718;7.114;2022-08-06T16:36:41;27.40;60.40
41080;DHT22;26826;50.718;7.114;2022-08-06T16:46:41;27.00;61.80
41080;DHT22;26826;50.718;7.114;2022-08-06T16:56:43;26.40;60.70
41080;DHT22;26826;50.718;7.114;2022-08-06T17:17:26;25.70;64.30
41080;DHT22;26826;50.718;7.114;2022-08-06T17:27:26;25.60;63.80
41080;DHT22;26826;50.718;7.114;2022-08-06T17:37:27;26.70;62.00
41080;DHT22;26826;50.718;7.114;2022-08-06T17:47:27;27.40;61.90
41080;DHT22;26826;50.718;7.114;2022-08-06T17:57:28;26.70;61.10
41080;DHT22;26826;50.718;7.114;2022-08-06T18:07:29;24.40;64.20
41080;DHT22;26826;50.718;7.114;2022-08-06T18:17:29;23.70;64.70
41080;DHT22;26826;50.718;7.114;2022-08-06T18:27:30;23.30;65.60
41080;DHT22;26826;50.718;7.114;2022-08-06T18:37:30;23.00;66.70
41080;DHT22;26826;50.718;7.114;2022-08-06T18:47:31;22.60;66.30
41080;DHT22;26826;50.718;7.114;2022-08-06T18:57:32;22.30;67.40
41080;DHT22;26826;50.718;7.114;2022-08-06T19:07:33;22.00;68.40
41080;DHT22;26826;50.718;7.114;2022-08-06T19:17:33;21.80;70.30
41080;DHT22;26826;50.718;7.114;2022-08-06T19:27:34;21.60;69.50
41080;DHT22;26826;50.718;7.114;2022-08-06T19:37:35;21.40;69.30
41080;DHT22;26826;50.718;7.114;2022-08-06T19:47:36;21.10;70.00
41080;DHT22;26826;50.718;7.114;2022-08-06T19:57:37;20.90;70.20
41080;DHT22;26826;50.718;7.114;2022-08-06T20:07:38;20.70;71.10
41080;DHT22;26826;50.718;7.114;2022-08-06T20:17:40;20.40;72.20
41080;DHT22;26826;50.718;7.114;2022-08-06T20:27:41;20.10;73.20
41080;DHT22;26826;50.718;7.114;2022-08-06T20:37:42;19.90;74.00
41080;DHT22;26826;50.718;7.114;2022-08-06T20:47:44;19.70;74.60
41080;DHT22;26826;50.718;7.114;2022-08-06T20:57:48;19.60;75.00
41080;DHT22;26826;50.718;7.114;2022-08-06T21:07:51;19.40;75.40
41080;DHT22;26826;50.718;7.114;2022-08-06T21:17:52;19.20;77.10
41080;DHT22;26826;50.718;7.114;2022-08-06T21:27:53;19.00;77.60
41080;DHT22;26826;50.718;7.114;2022-08-06T21:37:53;18.70;78.90
41080;DHT22;26826;50.718;7.114;2022-08-06T21:47:54;18.50;79.60
41080;DHT22;26826;50.718;7.114;2022-08-06T21:57:54;18.10;80.00
41080;DHT22;26826;50.718;7.114;2022-08-06T22:07:55;18.00;80.60
41080;DHT22;26826;50.718;7.114;2022-08-06T22:17:56;17.70;81.70
41080;DHT22;26826;50.718;7.114;2022-08-06T22:27:57;17.30;82.80
41080;DHT22;26826;50.718;7.114;2022-08-06T22:37:59;17.20;84.20
41080;DHT22;26826;50.718;7.114;2022-08-06T22:48:04;17.00;84.50
41080;DHT22;26826;50.718;7.114;2022-08-06T22:58:05;16.80;85.80
41080;DHT22;26826;50.718;7.114;2022-08-06T23:08:06;16.70;86.60
41080;DHT22;26826;50.718;7.114;2022-08-06T23:18:07;16.70;88.40
41080;DHT22;26826;50.718;7.114;2022-08-06T23:28:08;16.50;89.60
41080;DHT22;26826;50.718;7.114;2022-08-06T23:38:08;16.50;90.40
41080;DHT22;26826;50.718;7.114;2022-08-06T23:48:09;16.30;91.20
41080;DHT22;26826;50.718;7.114;2022-08-06T23:58:09;16.00;92.00
